sensor_id;sensor_type;location;lat;lon;timestamp;P1;durP1;ratioP1;P2;durP2;ratioP2
51612;SDS011;37694;51.748;14.326;2023-02-01T00:01:44;18.25;;;12.30;;
51612;SDS011;37694;51.748;14.326;2023-02-01T00:04:09;21.05;;;11.55;;
51612;SDS011;37694;51.748;14.326;2023-02-01T00:06:35;14.80;;;11.68;;
51612;SDS011;37694;51.748;14.326;2023-02-01T00:09:01;15.63;;;10.80;;
51612;SDS011;37694;51.748;14.326;2023-02-01T00:11:27;16.10;;;11.85;;
51612;SDS011;37694;51.748;14.326;2023-02-01T00:13:52;15.95;;;11.27;;
51612;SDS011;37694;51.748;14.326;2023-02-01T00:16:22;17.38;;;12.18;;
51612;SDS011;37694;51.748;14.326;2023-02-01T00:18:56;16.27;;;11.90;;
51612;SDS011;37694;51.748;14.326;2023-02-01T00:21:40;16.50;;;11.43;;
51612;SDS011;37694;51.748;14.326;2023-02-01T00:24:06;17.90;;;11.68;;
51612;SDS011;37694;51.748;14.326;2023-02-01T00:26:39;14.35;;;10.75;;
51612;SDS011;37694;51.748;14.326;2023-02-01T00:29:09;13.90;;;10.48;;
51612;SDS011;37694;51.748;14.326;2023-02-01T00:31:37;16.52;;;11.13;;
51612;SDS011;37694;51.748;14.326;2023-02-01T00:34:03;15.15;;;11.38;;
51612;SDS011;37694;51.748;14.326;2023-02-01T00:36:29;13.93;;;10.52;;
51612;SDS011;37694;51.748;14.326;2023-02-01T00:38:55;13.45;;;10.77;;
51612;SDS011;37694;51.748;14.326;2023-02-01T00:41:21;16.95;;;10.38;;
51612;SDS011;37694;51.748;14.326;2023-02-01T00:43:47;12.10;;;9.85;;
51612;SDS011;37694;51.748;14.326;2023-02-01T00:46:14;14.82;;;10.70;;
51612;SDS011;37694;51.748;14.326;2023-02-01T00:48:41;14.73;;;10.45;;
51612;SDS011;37694;51.748;14.326;2023-02-01T00:51:09;13.80;;;10.40;;
51612;SDS011;37694;51.748;14.326;2023-02-01T00:53:36;13.43;;;10.48;;
51612;SDS011;37694;51.748;14.326;2023-02-01T00:56:02;15.75;;;10.35;;
51612;SDS011;37694;51.748;14.326;2023-02-01T00:58:30;16.95;;;11.07;;
51612;SDS011;37694;51.748;14.326;2023-02-01T01:03:28;17.42;;;11.18;;
51612;SDS011;37694;51.748;14.326;2023-02-01T01:05:58;14.57;;;10.65;;
51612;SDS011;37694;51.748;14.326;2023-02-01T01:08:25;13.88;;;10.05;;
51612;SDS011;37694;51.748;14.326;2023-02-01T01:10:51;12.30;;;9.90;;
51612;SDS011;37694;51.748;14.326;2023-02-01T01:13:17;15.13;;;10.55;;
51612;SDS011;37694;51.748;14.326;2023-02-01T01:15:42;12.82;;;10.10;;
51612;SDS011;37694;51.748;14.326;2023-02-01T01:18:08;15.77;;;10.68;;
51612;SDS011;37694;51.748;14.326;2023-02-01T01:20:35;14.07;;;9.60;;
51612;SDS011;37694;51.748;14.326;2023-02-01T01:23:03;15.13;;;10.48;;
51612;SDS011;37694;51.748;14.326;2023-02-01T01:25:29;14.02;;;9.65;;
51612;SDS011;37694;51.748;14.326;2023-02-01T01:27:55;15.45;;;10.13;;
51612;SDS011;37694;51.748;14.326;2023-02-01T01:30:21;15.23;;;10.52;;
51612;SDS011;37694;51.748;14.326;2023-02-01T01:32:47;16.17;;;10.13;;
51612;SDS011;37694;51.748;14.326;2023-02-01T01:35:13;13.85;;;8.98;;
51612;SDS011;37694;51.748;14.326;2023-02-01T01:37:38;14.25;;;9.95;;
51612;SDS011;37694;51.748;14.326;2023-02-01T01:40:04;13.55;;;9.10;;
51612;SDS011;37694;51.748;14.326;2023-02-01T01:42:36;13.07;;;9.57;;
51612;SDS011;37694;51.748;14.326;2023-02-01T01:45:22;12.48;;;9.18;;
51612;SDS011;37694;51.748;14.326;2023-02-01T01:47:59;14.60;;;9.93;;
51612;SDS011;37694;51.748;14.326;2023-02-01T01:50:30;13.88;;;9.05;;
51612;SDS011;37694;51.748;14.326;2023-02-01T01:53:01;12.35;;;9.43;;
51612;SDS011;37694;51.748;14.326;2023-02-01T01:55:32;12.68;;;8.57;;
51612;SDS011;37694;51.748;14.326;2023-02-01T01:58:02;11.02;;;8.88;;
51612;SDS011;37694;51.748;14.326;2023-02-01T02:00:31;16.60;;;8.95;;
51612;SDS011;37694;51.748;14.326;2023-02-01T02:02:58;12.57;;;8.52;;
51612;SDS011;37694;51.748;14.326;2023-02-01T02:05:31;10.68;;;8.50;;
51612;SDS011;37694;51.748;14.326;2023-02-01T02:07:58;13.65;;;9.60;;
51612;SDS011;37694;51.748;14.326;2023-02-01T02:10:26;12.30;;;8.93;;
51612;SDS011;37694;51.748;14.326;2023-02-01T02:13:13;13.20;;;8.93;;
51612;SDS011;37694;51.748;14.326;2023-02-01T02:15:51;11.02;;;8.82;;
51612;SDS011;37694;51.748;14.326;2023-02-01T02:18:43;12.43;;;8.32;;
51612;SDS011;37694;51.748;14.326;2023-02-01T02:24:22;12.68;;;8.38;;
51612;SDS011;37694;51.748;14.326;2023-02-01T02:27:13;11.02;;;7.57;;
51612;SDS011;37694;51.748;14.326;2023-02-01T02:40:48;12.43;;;7.63;;
51612;SDS011;37694;51.748;14.326;2023-02-01T02:46:40;10.65;;;7.40;;
51612;SDS011;37694;51.748;14.326;2023-02-01T02:49:31;11.23;;;8.55;;
51612;SDS011;37694;51.748;14.326;2023-02-01T02:52:12;11.13;;;6.80;;
51612;SDS011;37694;51.748;14.326;2023-02-01T02:55:00;11.00;;;7.88;;
51612;SDS011;37694;51.748;14.326;2023-02-01T02:57:32;11.32;;;7.88;;
51612;SDS011;37694;51.748;14.326;2023-02-01T03:00:21;14.10;;;7.45;;
51612;SDS011;37694;51.748;14.326;2023-02-01T03:03:08;15.45;;;8.38;;
51612;SDS011;37694;51.748;14.326;2023-02-01T03:08:18;11.25;;;7.47;;
51612;SDS011;37694;51.748;14.326;2023-02-01T03:21:20;9.27;;;6.78;;
51612;SDS011;37694;51.748;14.326;2023-02-01T03:24:09;11.70;;;7.50;;
51612;SDS011;37694;51.748;14.326;2023-02-01T03:26:38;14.45;;;7.53;;
51612;SDS011;37694;51.748;14.326;2023-02-01T03:29:12;10.50;;;7.43;;
51612;SDS011;37694;51.748;14.326;2023-02-01T03:31:42;10.07;;;7.40;;
51612;SDS011;37694;51.748;14.326;2023-02-01T03:34:08;12.32;;;7.35;;
51612;SDS011;37694;51.748;14.326;2023-02-01T03:36:38;9.57;;;7.22;;
51612;SDS011;37694;51.748;14.326;2023-02-01T03:41:41;10.20;;;7.05;;
51612;SDS011;37694;51.748;14.326;2023-02-01T03:47:22;12.07;;;7.13;;
51612;SDS011;37694;51.748;14.326;2023-02-01T03:49:59;14.05;;;7.38;;
51612;SDS011;37694;51.748;14.326;2023-02-01T03:52:34;9.75;;;7.10;;
51612;SDS011;37694;51.748;14.326;2023-02-01T03:55:03;9.48;;;5.90;;
51612;SDS011;37694;51.748;14.326;2023-02-01T03:57:31;9.82;;;6.82;;
51612;SDS011;37694;51.748;14.326;2023-02-01T04:00:07;9.20;;;6.28;;
51612;SDS011;37694;51.748;14.326;2023-02-01T04:02:39;14.68;;;7.13;;
51612;SDS011;37694;51.748;14.326;2023-02-01T04:05:05;9.73;;;6.80;;
51612;SDS011;37694;51.748;14.326;2023-02-01T04:07:30;8.43;;;6.28;;
51612;SDS011;37694;51.748;14.326;2023-02-01T04:09:57;9.63;;;6.38;;
51612;SDS011;37694;51.748;14.326;2023-02-01T04:12:22;9.52;;;6.55;;
51612;SDS011;37694;51.748;14.326;2023-02-01T04:14:48;8.90;;;6.32;;
51612;SDS011;37694;51.748;14.326;2023-02-01T04:17:13;8.82;;;5.72;;
51612;SDS011;37694;51.748;14.326;2023-02-01T04:19:39;10.65;;;6.28;;
51612;SDS011;37694;51.748;14.326;2023-02-01T04:22:05;10.40;;;6.35;;
51612;SDS011;37694;51.748;14.326;2023-02-01T04:24:30;9.02;;;6.40;;
51612;SDS011;37694;51.748;14.326;2023-02-01T04:26:56;8.65;;;5.88;;
51612;SDS011;37694;51.748;14.326;2023-02-01T04:29:22;9.40;;;5.80;;
51612;SDS011;37694;51.748;14.326;2023-02-01T04:31:47;8.88;;;5.55;;
51612;SDS011;37694;51.748;14.326;2023-02-01T04:34:14;11.68;;;6.53;;
51612;SDS011;37694;51.748;14.326;2023-02-01T04:36:40;8.85;;;6.45;;
51612;SDS011;37694;51.748;14.326;2023-02-01T04:39:07;9.63;;;5.75;;
51612;SDS011;37694;51.748;14.326;2023-02-01T04:41:34;10.48;;;6.28;;
51612;SDS011;37694;51.748;14.326;2023-02-01T04:44:00;9.57;;;5.75;;
51612;SDS011;37694;51.748;14.326;2023-02-01T04:46:25;8.73;;;5.82;;
51612;SDS011;37694;51.748;14.326;2023-02-01T04:48:51;9.18;;;5.45;;
51612;SDS011;37694;51.748;14.326;2023-02-01T04:51:17;7.43;;;5.45;;
51612;SDS011;37694;51.748;14.326;2023-02-01T04:53:43;8.07;;;5.25;;
51612;SDS011;37694;51.748;14.326;2023-02-01T04:56:09;7.95;;;5.97;;
51612;SDS011;37694;51.748;14.326;2023-02-01T04:58:35;9.50;;;5.90;;
51612;SDS011;37694;51.748;14.326;2023-02-01T05:01:04;17.80;;;4.85;;
51612;SDS011;37694;51.748;14.326;2023-02-01T05:03:34;10.10;;;5.10;;
51612;SDS011;37694;51.748;14.326;2023-02-01T05:06:00;6.22;;;4.95;;
51612;SDS011;37694;51.748;14.326;2023-02-01T05:08:26;6.13;;;4.40;;
51612;SDS011;37694;51.748;14.326;2023-02-01T05:10:53;8.10;;;4.65;;
51612;SDS011;37694;51.748;14.326;2023-02-01T05:13:19;6.25;;;4.57;;
51612;SDS011;37694;51.748;14.326;2023-02-01T05:18:29;7.95;;;4.72;;
51612;SDS011;37694;51.748;14.326;2023-02-01T05:20:54;7.78;;;4.95;;
51612;SDS011;37694;51.748;14.326;2023-02-01T05:23:20;8.05;;;4.72;;
51612;SDS011;37694;51.748;14.326;2023-02-01T05:25:46;7.20;;;4.85;;
51612;SDS011;37694;51.748;14.326;2023-02-01T05:28:11;8.65;;;4.93;;
51612;SDS011;37694;51.748;14.326;2023-02-01T05:30:37;10.70;;;4.90;;
51612;SDS011;37694;51.748;14.326;2023-02-01T05:33:03;7.15;;;4.20;;
51612;SDS011;37694;51.748;14.326;2023-02-01T05:35:29;5.50;;;4.30;;
51612;SDS011;37694;51.748;14.326;2023-02-01T05:37:55;5.50;;;4.03;;
51612;SDS011;37694;51.748;14.326;2023-02-01T05:40:21;8.70;;;4.78;;
51612;SDS011;37694;51.748;14.326;2023-02-01T05:42:46;8.98;;;5.55;;
51612;SDS011;37694;51.748;14.326;2023-02-01T05:45:12;7.57;;;4.78;;
51612;SDS011;37694;51.748;14.326;2023-02-01T05:47:38;7.78;;;4.47;;
51612;SDS011;37694;51.748;14.326;2023-02-01T05:50:04;5.80;;;4.22;;
51612;SDS011;37694;51.748;14.326;2023-02-01T05:52:31;7.50;;;4.53;;
51612;SDS011;37694;51.748;14.326;2023-02-01T05:54:57;6.97;;;4.43;;
51612;SDS011;37694;51.748;14.326;2023-02-01T05:57:22;8.75;;;4.28;;
51612;SDS011;37694;51.748;14.326;2023-02-01T05:59:48;5.65;;;4.55;;
51612;SDS011;37694;51.748;14.326;2023-02-01T06:02:17;5.93;;;3.88;;
51612;SDS011;37694;51.748;14.326;2023-02-01T06:04:42;5.72;;;3.90;;
51612;SDS011;37694;51.748;14.326;2023-02-01T06:07:08;7.28;;;4.15;;
51612;SDS011;37694;51.748;14.326;2023-02-01T06:09:35;7.50;;;4.00;;
51612;SDS011;37694;51.748;14.326;2023-02-01T06:12:02;10.30;;;4.50;;
51612;SDS011;37694;51.748;14.326;2023-02-01T06:14:28;7.68;;;3.90;;
51612;SDS011;37694;51.748;14.326;2023-02-01T06:16:54;8.93;;;4.00;;
51612;SDS011;37694;51.748;14.326;2023-02-01T06:19:20;7.38;;;3.80;;
51612;SDS011;37694;51.748;14.326;2023-02-01T06:21:47;7.10;;;4.30;;
51612;SDS011;37694;51.748;14.326;2023-02-01T06:24:12;8.40;;;5.00;;
51612;SDS011;37694;51.748;14.326;2023-02-01T06:26:38;9.00;;;4.22;;
51612;SDS011;37694;51.748;14.326;2023-02-01T06:29:05;8.93;;;4.43;;
51612;SDS011;37694;51.748;14.326;2023-02-01T06:31:31;6.63;;;3.60;;
51612;SDS011;37694;51.748;14.326;2023-02-01T06:33:57;10.10;;;4.38;;
51612;SDS011;37694;51.748;14.326;2023-02-01T06:36:23;35.63;;;8.25;;
51612;SDS011;37694;51.748;14.326;2023-02-01T06:38:49;83.05;;;18.15;;
51612;SDS011;37694;51.748;14.326;2023-02-01T06:41:14;76.97;;;17.13;;
51612;SDS011;37694;51.748;14.326;2023-02-01T06:43:41;112.63;;;26.13;;
51612;SDS011;37694;51.748;14.326;2023-02-01T06:46:08;107.82;;;22.90;;
51612;SDS011;37694;51.748;14.326;2023-02-01T06:48:36;130.88;;;28.42;;
51612;SDS011;37694;51.748;14.326;2023-02-01T06:51:02;106.35;;;23.88;;
51612;SDS011;37694;51.748;14.326;2023-02-01T06:53:28;119.88;;;29.42;;
51612;SDS011;37694;51.748;14.326;2023-02-01T06:55:54;124.90;;;28.92;;
51612;SDS011;37694;51.748;14.326;2023-02-01T06:58:21;118.75;;;31.25;;
51612;SDS011;37694;51.748;14.326;2023-02-01T07:00:47;111.25;;;30.52;;
51612;SDS011;37694;51.748;14.326;2023-02-01T07:03:13;111.47;;;28.25;;
51612;SDS011;37694;51.748;14.326;2023-02-01T07:05:39;118.13;;;30.77;;
51612;SDS011;37694;51.748;14.326;2023-02-01T07:08:05;134.85;;;31.67;;
51612;SDS011;37694;51.748;14.326;2023-02-01T07:10:30;134.57;;;31.48;;
51612;SDS011;37694;51.748;14.326;2023-02-01T07:12:57;106.32;;;30.58;;
51612;SDS011;37694;51.748;14.326;2023-02-01T07:15:22;147.27;;;35.03;;
51612;SDS011;37694;51.748;14.326;2023-02-01T07:17:48;110.60;;;27.05;;
51612;SDS011;37694;51.748;14.326;2023-02-01T07:20:14;122.15;;;33.42;;
51612;SDS011;37694;51.748;14.326;2023-02-01T07:22:40;104.47;;;29.23;;
51612;SDS011;37694;51.748;14.326;2023-02-01T07:25:06;116.22;;;32.03;;
51612;SDS011;37694;51.748;14.326;2023-02-01T07:27:35;105.03;;;28.65;;
51612;SDS011;37694;51.748;14.326;2023-02-01T07:30:02;132.00;;;30.58;;
51612;SDS011;37694;51.748;14.326;2023-02-01T07:32:29;120.30;;;29.13;;
51612;SDS011;37694;51.748;14.326;2023-02-01T07:34:55;109.25;;;28.70;;
51612;SDS011;37694;51.748;14.326;2023-02-01T07:37:21;100.82;;;29.73;;
51612;SDS011;37694;51.748;14.326;2023-02-01T07:39:49;99.53;;;27.33;;
51612;SDS011;37694;51.748;14.326;2023-02-01T07:42:15;90.60;;;24.88;;
51612;SDS011;37694;51.748;14.326;2023-02-01T07:44:41;89.00;;;25.63;;
51612;SDS011;37694;51.748;14.326;2023-02-01T07:47:07;88.88;;;23.98;;
51612;SDS011;37694;51.748;14.326;2023-02-01T07:49:32;87.10;;;24.55;;
51612;SDS011;37694;51.748;14.326;2023-02-01T07:51:58;77.75;;;23.83;;
51612;SDS011;37694;51.748;14.326;2023-02-01T07:54:24;68.50;;;23.50;;
51612;SDS011;37694;51.748;14.326;2023-02-01T07:56:49;70.18;;;22.63;;
51612;SDS011;37694;51.748;14.326;2023-02-01T07:59:15;71.60;;;22.92;;
51612;SDS011;37694;51.748;14.326;2023-02-01T08:01:41;49.88;;;18.13;;
51612;SDS011;37694;51.748;14.326;2023-02-01T08:04:07;84.70;;;24.08;;
51612;SDS011;37694;51.748;14.326;2023-02-01T08:06:37;65.93;;;22.15;;
51612;SDS011;37694;51.748;14.326;2023-02-01T08:09:04;80.18;;;23.15;;
51612;SDS011;37694;51.748;14.326;2023-02-01T08:11:30;82.45;;;22.98;;
51612;SDS011;37694;51.748;14.326;2023-02-01T08:13:57;58.25;;;21.00;;
51612;SDS011;37694;51.748;14.326;2023-02-01T08:16:24;56.20;;;21.30;;
51612;SDS011;37694;51.748;14.326;2023-02-01T08:18:50;62.75;;;19.27;;
51612;SDS011;37694;51.748;14.326;2023-02-01T08:21:20;68.95;;;21.20;;
51612;SDS011;37694;51.748;14.326;2023-02-01T08:23:48;59.33;;;18.73;;
51612;SDS011;37694;51.748;14.326;2023-02-01T08:26:21;49.92;;;16.95;;
51612;SDS011;37694;51.748;14.326;2023-02-01T08:28:57;55.58;;;19.75;;
51612;SDS011;37694;51.748;14.326;2023-02-01T08:31:25;58.30;;;18.38;;
51612;SDS011;37694;51.748;14.326;2023-02-01T08:33:54;60.90;;;18.52;;
51612;SDS011;37694;51.748;14.326;2023-02-01T08:36:22;56.35;;;19.25;;
51612;SDS011;37694;51.748;14.326;2023-02-01T08:38:49;56.83;;;17.27;;
51612;SDS011;37694;51.748;14.326;2023-02-01T08:41:16;58.72;;;18.90;;
51612;SDS011;37694;51.748;14.326;2023-02-01T08:43:44;58.47;;;17.63;;
51612;SDS011;37694;51.748;14.326;2023-02-01T08:46:10;50.35;;;19.08;;
51612;SDS011;37694;51.748;14.326;2023-02-01T08:48:36;47.60;;;16.67;;
51612;SDS011;37694;51.748;14.326;2023-02-01T08:51:03;55.40;;;18.70;;
51612;SDS011;37694;51.748;14.326;2023-02-01T08:53:30;49.45;;;17.30;;
51612;SDS011;37694;51.748;14.326;2023-02-01T08:55:56;50.22;;;16.52;;
51612;SDS011;37694;51.748;14.326;2023-02-01T08:58:22;56.90;;;16.08;;
51612;SDS011;37694;51.748;14.326;2023-02-01T09:00:48;38.47;;;15.10;;
51612;SDS011;37694;51.748;14.326;2023-02-01T09:03:14;40.40;;;15.27;;
51612;SDS011;37694;51.748;14.326;2023-02-01T09:05:40;45.38;;;17.38;;
51612;SDS011;37694;51.748;14.326;2023-02-01T09:08:06;45.50;;;15.32;;
51612;SDS011;37694;51.748;14.326;2023-02-01T09:10:32;41.22;;;15.77;;
51612;SDS011;37694;51.748;14.326;2023-02-01T09:12:58;54.65;;;16.67;;
51612;SDS011;37694;51.748;14.326;2023-02-01T09:15:24;35.88;;;14.23;;
51612;SDS011;37694;51.748;14.326;2023-02-01T09:17:49;46.38;;;16.30;;
51612;SDS011;37694;51.748;14.326;2023-02-01T09:20:15;40.17;;;14.52;;
51612;SDS011;37694;51.748;14.326;2023-02-01T09:22:41;39.50;;;15.63;;
51612;SDS011;37694;51.748;14.326;2023-02-01T09:25:07;33.45;;;12.70;;
51612;SDS011;37694;51.748;14.326;2023-02-01T09:27:33;43.65;;;15.45;;
51612;SDS011;37694;51.748;14.326;2023-02-01T09:29:59;40.00;;;15.00;;
51612;SDS011;37694;51.748;14.326;2023-02-01T09:32:25;36.95;;;14.13;;
51612;SDS011;37694;51.748;14.326;2023-02-01T09:34:51;39.45;;;15.00;;
51612;SDS011;37694;51.748;14.326;2023-02-01T09:37:18;46.80;;;14.90;;
51612;SDS011;37694;51.748;14.326;2023-02-01T09:39:44;43.35;;;15.88;;
51612;SDS011;37694;51.748;14.326;2023-02-01T09:47:31;37.85;;;13.68;;
51612;SDS011;37694;51.748;14.326;2023-02-01T09:52:31;32.30;;;13.10;;
51612;SDS011;37694;51.748;14.326;2023-02-01T09:55:04;36.95;;;13.23;;
51612;SDS011;37694;51.748;14.326;2023-02-01T10:00:21;30.58;;;12.63;;
51612;SDS011;37694;51.748;14.326;2023-02-01T10:02:50;32.05;;;13.25;;
51612;SDS011;37694;51.748;14.326;2023-02-01T10:05:21;34.75;;;13.40;;
51612;SDS011;37694;51.748;14.326;2023-02-01T10:08:08;33.08;;;13.23;;
51612;SDS011;37694;51.748;14.326;2023-02-01T10:10:45;28.42;;;11.95;;
51612;SDS011;37694;51.748;14.326;2023-02-01T10:13:34;34.15;;;12.02;;
51612;SDS011;37694;51.748;14.326;2023-02-01T10:19:33;31.95;;;12.27;;
51612;SDS011;37694;51.748;14.326;2023-02-01T10:22:41;31.58;;;12.27;;
51612;SDS011;37694;51.748;14.326;2023-02-01T10:27:44;27.92;;;11.40;;
51612;SDS011;37694;51.748;14.326;2023-02-01T10:30:16;27.10;;;11.45;;
51612;SDS011;37694;51.748;14.326;2023-02-01T10:32:51;28.20;;;12.02;;
51612;SDS011;37694;51.748;14.326;2023-02-01T10:35:27;30.92;;;11.43;;
51612;SDS011;37694;51.748;14.326;2023-02-01T10:37:58;24.02;;;10.68;;
51612;SDS011;37694;51.748;14.326;2023-02-01T10:40:27;26.35;;;11.27;;
51612;SDS011;37694;51.748;14.326;2023-02-01T10:43:00;23.33;;;10.35;;
51612;SDS011;37694;51.748;14.326;2023-02-01T10:45:28;29.67;;;11.20;;
51612;SDS011;37694;51.748;14.326;2023-02-01T10:47:57;24.77;;;10.63;;
51612;SDS011;37694;51.748;14.326;2023-02-01T10:50:33;23.50;;;9.40;;
51612;SDS011;37694;51.748;14.326;2023-02-01T10:53:16;29.58;;;10.80;;
51612;SDS011;37694;51.748;14.326;2023-02-01T10:58:19;25.40;;;10.93;;
51612;SDS011;37694;51.748;14.326;2023-02-01T11:06:51;22.08;;;9.63;;
51612;SDS011;37694;51.748;14.326;2023-02-01T11:14:57;26.92;;;9.60;;
51612;SDS011;37694;51.748;14.326;2023-02-01T11:20:14;22.98;;;8.77;;
51612;SDS011;37694;51.748;14.326;2023-02-01T11:22:38;23.48;;;9.57;;
51612;SDS011;37694;51.748;14.326;2023-02-01T11:25:14;20.95;;;9.20;;
51612;SDS011;37694;51.748;14.326;2023-02-01T11:27:41;20.23;;;8.13;;
51612;SDS011;37694;51.748;14.326;2023-02-01T11:30:13;20.13;;;9.23;;
51612;SDS011;37694;51.748;14.326;2023-02-01T11:32:43;21.88;;;8.77;;
51612;SDS011;37694;51.748;14.326;2023-02-01T11:35:13;19.95;;;8.75;;
51612;SDS011;37694;51.748;14.326;2023-02-01T11:37:43;19.30;;;8.10;;
51612;SDS011;37694;51.748;14.326;2023-02-01T11:42:52;14.43;;;7.05;;
51612;SDS011;37694;51.748;14.326;2023-02-01T11:45:31;16.67;;;7.35;;
51612;SDS011;37694;51.748;14.326;2023-02-01T11:48:02;20.90;;;7.75;;
51612;SDS011;37694;51.748;14.326;2023-02-01T11:56:19;13.18;;;7.05;;
51612;SDS011;37694;51.748;14.326;2023-02-01T12:06:42;13.57;;;6.55;;
51612;SDS011;37694;51.748;14.326;2023-02-01T12:14:37;16.23;;;7.05;;
51612;SDS011;37694;51.748;14.326;2023-02-01T12:22:09;16.45;;;6.50;;
51612;SDS011;37694;51.748;14.326;2023-02-01T12:25:14;14.60;;;6.63;;
51612;SDS011;37694;51.748;14.326;2023-02-01T12:28:05;13.15;;;6.30;;
51612;SDS011;37694;51.748;14.326;2023-02-01T12:35:50;14.20;;;6.53;;
51612;SDS011;37694;51.748;14.326;2023-02-01T12:50:02;11.30;;;6.10;;
51612;SDS011;37694;51.748;14.326;2023-02-01T12:58:20;12.82;;;5.68;;
51612;SDS011;37694;51.748;14.326;2023-02-01T13:00:55;12.80;;;5.30;;
51612;SDS011;37694;51.748;14.326;2023-02-01T13:03:33;12.95;;;5.90;;
51612;SDS011;37694;51.748;14.326;2023-02-01T13:06:12;11.18;;;6.25;;
51612;SDS011;37694;51.748;14.326;2023-02-01T13:11:39;11.80;;;6.05;;
51612;SDS011;37694;51.748;14.326;2023-02-01T13:14:23;10.63;;;5.03;;
51612;SDS011;37694;51.748;14.326;2023-02-01T13:17:01;12.20;;;5.97;;
51612;SDS011;37694;51.748;14.326;2023-02-01T13:22:20;9.63;;;5.18;;
51612;SDS011;37694;51.748;14.326;2023-02-01T13:24:59;11.85;;;5.70;;
51612;SDS011;37694;51.748;14.326;2023-02-01T13:27:28;8.90;;;5.57;;
51612;SDS011;37694;51.748;14.326;2023-02-01T13:38:49;11.45;;;5.18;;
51612;SDS011;37694;51.748;14.326;2023-02-01T13:44:25;10.13;;;5.35;;
51612;SDS011;37694;51.748;14.326;2023-02-01T13:46:55;9.75;;;4.68;;
51612;SDS011;37694;51.748;14.326;2023-02-01T13:49:24;11.23;;;5.60;;
51612;SDS011;37694;51.748;14.326;2023-02-01T13:51:55;8.35;;;4.75;;
51612;SDS011;37694;51.748;14.326;2023-02-01T13:56:58;11.02;;;5.03;;
51612;SDS011;37694;51.748;14.326;2023-02-01T14:05:11;9.73;;;4.50;;
51612;SDS011;37694;51.748;14.326;2023-02-01T14:21:12;8.52;;;4.57;;
51612;SDS011;37694;51.748;14.326;2023-02-01T14:23:54;7.47;;;4.20;;
51612;SDS011;37694;51.748;14.326;2023-02-01T14:26:25;7.55;;;4.35;;
51612;SDS011;37694;51.748;14.326;2023-02-01T14:32:04;8.88;;;4.65;;
51612;SDS011;37694;51.748;14.326;2023-02-01T14:37:09;7.95;;;4.10;;
51612;SDS011;37694;51.748;14.326;2023-02-01T14:50:29;7.32;;;4.35;;
51612;SDS011;37694;51.748;14.326;2023-02-01T15:00:53;6.75;;;3.90;;
51612;SDS011;37694;51.748;14.326;2023-02-01T15:03:29;6.45;;;4.07;;
51612;SDS011;37694;51.748;14.326;2023-02-01T15:06:00;7.63;;;3.80;;
51612;SDS011;37694;51.748;14.326;2023-02-01T15:08:37;5.93;;;3.67;;
51612;SDS011;37694;51.748;14.326;2023-02-01T15:11:07;5.50;;;3.28;;
51612;SDS011;37694;51.748;14.326;2023-02-01T15:13:38;5.70;;;4.10;;
51612;SDS011;37694;51.748;14.326;2023-02-01T15:16:14;7.43;;;3.72;;
51612;SDS011;37694;51.748;14.326;2023-02-01T15:18:41;6.78;;;4.32;;
51612;SDS011;37694;51.748;14.326;2023-02-01T15:21:20;7.90;;;3.80;;
51612;SDS011;37694;51.748;14.326;2023-02-01T15:23:47;6.25;;;3.70;;
51612;SDS011;37694;51.748;14.326;2023-02-01T15:26:34;11.65;;;3.83;;
51612;SDS011;37694;51.748;14.326;2023-02-01T15:28:59;8.23;;;4.03;;
51612;SDS011;37694;51.748;14.326;2023-02-01T15:31:58;5.65;;;3.60;;
51612;SDS011;37694;51.748;14.326;2023-02-01T15:34:18;8.93;;;4.28;;
51612;SDS011;37694;51.748;14.326;2023-02-01T15:36:45;5.53;;;3.63;;
51612;SDS011;37694;51.748;14.326;2023-02-01T15:41:56;11.48;;;3.97;;
51612;SDS011;37694;51.748;14.326;2023-02-01T15:46:57;9.27;;;3.30;;
51612;SDS011;37694;51.748;14.326;2023-02-01T15:49:30;5.95;;;2.90;;
51612;SDS011;37694;51.748;14.326;2023-02-01T15:52:01;9.13;;;3.45;;
51612;SDS011;37694;51.748;14.326;2023-02-01T15:54:32;8.73;;;3.30;;
51612;SDS011;37694;51.748;14.326;2023-02-01T15:57:02;8.65;;;3.53;;
51612;SDS011;37694;51.748;14.326;2023-02-01T15:59:43;7.43;;;3.20;;
51612;SDS011;37694;51.748;14.326;2023-02-01T16:04:50;8.40;;;3.13;;
51612;SDS011;37694;51.748;14.326;2023-02-01T16:07:25;15.20;;;3.95;;
51612;SDS011;37694;51.748;14.326;2023-02-01T16:09:53;7.38;;;3.40;;
51612;SDS011;37694;51.748;14.326;2023-02-01T16:12:32;13.88;;;2.95;;
51612;SDS011;37694;51.748;14.326;2023-02-01T16:15:03;8.48;;;3.22;;
51612;SDS011;37694;51.748;14.326;2023-02-01T16:17:29;9.07;;;3.08;;
51612;SDS011;37694;51.748;14.326;2023-02-01T16:19:55;14.90;;;3.35;;
51612;SDS011;37694;51.748;14.326;2023-02-01T16:22:22;16.13;;;3.80;;
51612;SDS011;37694;51.748;14.326;2023-02-01T16:24:47;16.23;;;4.28;;
51612;SDS011;37694;51.748;14.326;2023-02-01T16:27:13;20.73;;;3.85;;
51612;SDS011;37694;51.748;14.326;2023-02-01T16:29:39;12.55;;;3.17;;
51612;SDS011;37694;51.748;14.326;2023-02-01T16:32:04;10.35;;;3.65;;
51612;SDS011;37694;51.748;14.326;2023-02-01T16:34:30;20.55;;;4.32;;
51612;SDS011;37694;51.748;14.326;2023-02-01T16:36:57;18.25;;;3.97;;
51612;SDS011;37694;51.748;14.326;2023-02-01T16:39:23;10.75;;;3.53;;
51612;SDS011;37694;51.748;14.326;2023-02-01T16:41:49;16.35;;;4.43;;
51612;SDS011;37694;51.748;14.326;2023-02-01T16:44:15;27.73;;;5.45;;
51612;SDS011;37694;51.748;14.326;2023-02-01T16:46:42;17.67;;;4.63;;
51612;SDS011;37694;51.748;14.326;2023-02-01T16:49:20;20.77;;;4.22;;
51612;SDS011;37694;51.748;14.326;2023-02-01T16:51:50;14.63;;;4.05;;
51612;SDS011;37694;51.748;14.326;2023-02-01T16:54:20;19.15;;;4.40;;
51612;SDS011;37694;51.748;14.326;2023-02-01T16:56:46;12.90;;;4.40;;
51612;SDS011;37694;51.748;14.326;2023-02-01T16:59:12;19.58;;;4.30;;
51612;SDS011;37694;51.748;14.326;2023-02-01T17:01:39;19.00;;;3.97;;
51612;SDS011;37694;51.748;14.326;2023-02-01T17:04:07;12.40;;;4.18;;
51612;SDS011;37694;51.748;14.326;2023-02-01T17:06:34;15.93;;;4.13;;
51612;SDS011;37694;51.748;14.326;2023-02-01T17:09:02;10.18;;;3.35;;
51612;SDS011;37694;51.748;14.326;2023-02-01T17:11:28;17.23;;;3.97;;
51612;SDS011;37694;51.748;14.326;2023-02-01T17:13:56;12.65;;;3.38;;
51612;SDS011;37694;51.748;14.326;2023-02-01T17:16:29;12.13;;;3.83;;
51612;SDS011;37694;51.748;14.326;2023-02-01T17:19:00;14.95;;;3.50;;
51612;SDS011;37694;51.748;14.326;2023-02-01T17:21:30;17.33;;;4.03;;
51612;SDS011;37694;51.748;14.326;2023-02-01T17:24:04;12.95;;;3.90;;
51612;SDS011;37694;51.748;14.326;2023-02-01T17:26:29;15.25;;;4.43;;
51612;SDS011;37694;51.748;14.326;2023-02-01T17:28:55;17.08;;;5.65;;
51612;SDS011;37694;51.748;14.326;2023-02-01T17:31:22;16.02;;;4.22;;
51612;SDS011;37694;51.748;14.326;2023-02-01T17:33:47;12.77;;;4.20;;
51612;SDS011;37694;51.748;14.326;2023-02-01T17:36:14;21.35;;;4.38;;
51612;SDS011;37694;51.748;14.326;2023-02-01T17:38:41;18.55;;;5.43;;
51612;SDS011;37694;51.748;14.326;2023-02-01T17:41:11;16.45;;;4.60;;
51612;SDS011;37694;51.748;14.326;2023-02-01T17:43:38;13.38;;;4.43;;
51612;SDS011;37694;51.748;14.326;2023-02-01T17:46:06;17.77;;;4.00;;
51612;SDS011;37694;51.748;14.326;2023-02-01T17:48:36;10.18;;;3.70;;